createdAt,value
2023-02-14T00:00:16.598Z,29.00
2023-02-14T00:02:20.114Z,28.02
2023-02-14T00:04:23.511Z,29.02
2023-02-14T00:06:29.902Z,27.55
2023-02-14T00:08:33.381Z,28.80
2023-02-14T00:10:36.648Z,28.95
2023-02-14T00:12:39.913Z,28.60
2023-02-14T00:15:00.398Z,29.40
2023-02-14T00:17:03.833Z,28.02
2023-02-14T00:19:07.078Z,27.80
2023-02-14T00:21:10.266Z,27.92
2023-02-14T00:23:15.047Z,27.83
2023-02-14T00:25:18.478Z,29.25
2023-02-14T00:27:21.717Z,28.73
2023-02-14T00:29:27.725Z,29.90
2023-02-14T00:31:31.168Z,28.40
2023-02-14T00:33:34.472Z,28.80
2023-02-14T00:35:38.983Z,28.05
2023-02-14T00:37:42.297Z,30.38
2023-02-14T00:39:46.934Z,31.17
2023-02-14T00:41:50.120Z,28.13
2023-02-14T00:43:54.578Z,30.30
2023-02-14T00:45:58.066Z,28.27
2023-02-14T00:48:01.363Z,27.55
2023-02-14T00:50:05.146Z,29.45
2023-02-14T00:52:08.430Z,28.63
2023-02-14T00:54:11.628Z,29.05
2023-02-14T00:56:17.272Z,28.98
2023-02-14T00:58:20.512Z,29.73
2023-02-14T01:00:24.316Z,27.75
2023-02-14T01:02:32.226Z,28.98
2023-02-14T01:04:35.660Z,28.13
2023-02-14T01:06:39.110Z,28.67
2023-02-14T01:08:42.563Z,28.38
2023-02-14T01:10:46.057Z,28.48
2023-02-14T01:12:50.729Z,28.90
2023-02-14T01:14:54.014Z,29.30
2023-02-14T01:16:57.156Z,28.85
2023-02-14T01:19:02.083Z,28.90
2023-02-14T01:21:16.744Z,28.27
2023-02-14T01:24:14.331Z,28.95
2023-02-14T01:27:30.571Z,28.65
2023-02-14T01:29:53.794Z,27.00
2023-02-14T01:31:57.096Z,28.13
2023-02-14T01:34:01.976Z,27.52
2023-02-14T01:36:05.861Z,28.70
2023-02-14T01:38:09.168Z,28.23
2023-02-14T01:40:14.614Z,28.80
2023-02-14T01:42:19.668Z,27.63
2023-02-14T01:45:03.322Z,28.15
2023-02-14T01:47:11.428Z,28.55
2023-02-14T01:49:18.387Z,29.48
2023-02-14T01:51:22.543Z,28.52
2023-02-14T01:53:30.022Z,28.85
2023-02-14T01:55:38.019Z,29.00
2023-02-14T01:57:46.231Z,29.30
2023-02-14T01:59:54.134Z,28.45
2023-02-14T02:01:59.133Z,29.48
2023-02-14T02:04:08.832Z,28.50
2023-02-14T02:06:16.416Z,28.52
2023-02-14T02:08:20.636Z,29.92
2023-02-14T02:10:24.408Z,29.35
2023-02-14T02:12:30.811Z,29.88
2023-02-14T02:14:36.070Z,29.83
2023-02-14T02:16:55.671Z,29.40
2023-02-14T02:19:22.813Z,29.27
2023-02-14T02:21:59.884Z,30.20
2023-02-14T02:24:16.781Z,28.83
2023-02-14T02:26:50.506Z,29.15
2023-02-14T02:29:21.881Z,30.17
2023-02-14T02:31:44.390Z,30.17
2023-02-14T02:34:17.498Z,29.58
2023-02-14T02:36:48.851Z,28.90
2023-02-14T02:39:17.169Z,28.67
2023-02-14T02:41:32.284Z,30.13
2023-02-14T02:43:45.292Z,29.90
2023-02-14T02:46:09.526Z,30.30
2023-02-14T02:48:23.182Z,28.95
2023-02-14T02:50:48.721Z,30.25
2023-02-14T02:53:03.314Z,28.90
2023-02-14T02:55:14.509Z,29.30
2023-02-14T02:57:22.775Z,28.00
2023-02-14T02:59:30.255Z,28.25
2023-02-14T03:01:39.353Z,30.08
2023-02-14T03:04:04.965Z,28.90
2023-02-14T03:06:08.649Z,28.85
2023-02-14T03:08:13.306Z,29.20
2023-02-14T03:10:18.810Z,28.20
2023-02-14T03:12:41.408Z,27.80
2023-02-14T03:14:51.363Z,29.45
2023-02-14T03:17:06.975Z,28.60
2023-02-14T03:19:59.865Z,29.00
2023-02-14T03:22:15.702Z,28.67
2023-02-14T03:24:28.673Z,27.85
2023-02-14T03:26:39.100Z,28.45
2023-02-14T03:28:48.427Z,29.63
2023-02-14T03:31:00.696Z,28.75
2023-02-14T03:33:07.728Z,28.90
2023-02-14T03:35:20.841Z,28.50
2023-02-14T03:37:30.148Z,28.65
2023-02-14T03:39:42.371Z,28.38
2023-02-14T03:41:50.292Z,28.30
2023-02-14T03:43:57.760Z,29.33
2023-02-14T03:46:07.847Z,29.80
2023-02-14T03:48:13.987Z,30.38
2023-02-14T03:50:20.102Z,28.50
2023-02-14T03:52:26.332Z,27.98
2023-02-14T03:54:32.535Z,30.63
2023-02-14T03:56:41.236Z,29.73
2023-02-14T03:58:48.977Z,28.73
2023-02-14T04:00:58.261Z,29.13
2023-02-14T04:03:05.965Z,29.63
2023-02-14T04:05:14.312Z,29.25
2023-02-14T04:07:19.844Z,29.63
2023-02-14T04:09:22.988Z,29.83
2023-02-14T04:11:26.226Z,29.88
2023-02-14T04:13:30.849Z,29.63
2023-02-14T04:15:34.180Z,28.00
2023-02-14T04:17:55.052Z,28.38
2023-02-14T04:19:58.279Z,31.42
2023-02-14T04:22:01.443Z,28.88
2023-02-14T04:24:04.936Z,31.10
2023-02-14T04:26:08.165Z,28.50
2023-02-14T04:28:11.312Z,30.90
2023-02-14T04:30:18.085Z,29.90
2023-02-14T04:32:23.348Z,29.65
2023-02-14T04:34:26.792Z,30.80
2023-02-14T04:36:29.972Z,29.35
2023-02-14T04:38:33.928Z,31.48
2023-02-14T04:40:37.173Z,30.08
2023-02-14T04:42:40.348Z,29.58
2023-02-14T04:44:43.604Z,30.23
2023-02-14T04:46:48.188Z,30.05
2023-02-14T04:48:51.431Z,30.45
2023-02-14T04:50:55.340Z,29.50
2023-02-14T04:52:58.529Z,31.20
2023-02-14T04:55:01.642Z,29.25
2023-02-14T04:57:04.897Z,29.40
2023-02-14T04:59:08.134Z,30.20
2023-02-14T05:01:11.277Z,30.52
2023-02-14T05:03:15.839Z,29.90
2023-02-14T05:05:19.332Z,29.55
2023-02-14T05:07:22.494Z,31.17
2023-02-14T05:09:25.776Z,31.30
2023-02-14T05:11:29.367Z,31.55
2023-02-14T05:13:33.056Z,31.58
2023-02-14T05:15:38.392Z,31.55
2023-02-14T05:17:41.985Z,33.15
2023-02-14T05:19:46.588Z,32.42
2023-02-14T05:21:49.786Z,31.13
2023-02-14T05:23:52.914Z,32.10
2023-02-14T05:25:56.136Z,30.73
2023-02-14T05:27:59.565Z,31.77
2023-02-14T05:30:02.909Z,31.25
2023-02-14T05:32:06.560Z,30.73
2023-02-14T05:34:09.782Z,30.38
2023-02-14T05:36:14.506Z,31.13
2023-02-14T05:38:17.937Z,30.65
2023-02-14T05:40:21.374Z,30.25
2023-02-14T05:42:24.594Z,33.15
2023-02-14T05:44:27.913Z,30.23
2023-02-14T05:46:31.080Z,29.65
2023-02-14T05:48:35.088Z,31.13
2023-02-14T05:50:38.336Z,33.20
2023-02-14T05:52:43.395Z,30.45
2023-02-14T05:54:46.596Z,30.20
2023-02-14T05:56:49.787Z,30.95
2023-02-14T05:58:53.036Z,30.83
2023-02-14T06:00:57.853Z,29.58
2023-02-14T06:03:01.312Z,31.27
2023-02-14T06:05:04.443Z,32.25
2023-02-14T06:07:07.599Z,31.38
2023-02-14T06:09:12.182Z,31.15
2023-02-14T06:11:15.343Z,32.78
2023-02-14T06:13:18.526Z,33.03
2023-02-14T06:15:22.463Z,31.73
2023-02-14T06:17:25.664Z,31.73
2023-02-14T06:19:28.973Z,30.98
2023-02-14T06:21:32.447Z,31.77
2023-02-14T06:23:35.675Z,31.23
2023-02-14T06:25:40.207Z,33.30
2023-02-14T06:27:43.453Z,32.22
2023-02-14T06:29:46.809Z,30.63
2023-02-14T06:31:50.206Z,33.08
2023-02-14T06:33:54.019Z,32.03
2023-02-14T06:35:57.220Z,31.17
2023-02-14T06:38:00.374Z,30.73
2023-02-14T06:40:03.919Z,32.05
2023-02-14T06:42:08.722Z,31.92
2023-02-14T06:44:11.996Z,31.30
2023-02-14T06:46:15.333Z,31.52
2023-02-14T06:48:18.548Z,32.10
2023-02-14T06:50:21.731Z,32.08
2023-02-14T06:52:24.910Z,30.27
2023-02-14T06:54:28.126Z,30.58
2023-02-14T06:56:31.293Z,31.50
2023-02-14T06:58:36.235Z,31.23
2023-02-14T07:00:39.825Z,31.15
2023-02-14T07:02:43.528Z,31.50
2023-02-14T07:04:46.868Z,30.77
2023-02-14T07:06:50.064Z,30.15
2023-02-14T07:08:53.332Z,30.85
2023-02-14T07:10:58.236Z,30.88
2023-02-14T07:13:02.035Z,31.05
2023-02-14T07:15:07.421Z,31.65
2023-02-14T07:17:10.739Z,32.20
2023-02-14T07:19:14.205Z,31.15
2023-02-14T07:21:17.563Z,31.58
2023-02-14T07:23:20.855Z,30.35
2023-02-14T07:25:23.996Z,30.88
2023-02-14T07:27:27.369Z,30.52
2023-02-14T07:29:30.565Z,30.10
2023-02-14T07:31:35.196Z,30.65
2023-02-14T07:33:38.497Z,30.38
2023-02-14T07:35:41.708Z,29.88
2023-02-14T07:37:44.879Z,30.48
2023-02-14T07:39:48.135Z,30.60
2023-02-14T07:41:51.577Z,30.90
2023-02-14T07:43:56.093Z,30.30
2023-02-14T07:46:00.836Z,31.17
2023-02-14T07:48:05.993Z,31.35
2023-02-14T07:50:09.716Z,29.58
2023-02-14T07:52:12.909Z,30.02
2023-02-14T07:54:16.066Z,30.88
2023-02-14T07:56:19.277Z,30.80
2023-02-14T07:58:22.559Z,29.65
2023-02-14T08:00:25.794Z,29.65
2023-02-14T08:02:29.234Z,30.48
2023-02-14T08:04:34.140Z,30.35
2023-02-14T08:06:37.377Z,29.15
2023-02-14T08:08:40.840Z,30.17
2023-02-14T08:10:44.078Z,25.05
2023-02-14T08:13:01.406Z,22.30
2023-02-14T08:15:18.911Z,26.52
2023-02-14T08:17:22.057Z,23.13
2023-02-14T08:19:25.301Z,21.75
2023-02-14T08:21:29.989Z,21.55
2023-02-14T08:23:33.373Z,21.48
2023-02-14T08:25:36.584Z,20.38
2023-02-14T08:27:40.237Z,20.33
2023-02-14T08:29:43.359Z,21.15
2023-02-14T08:31:47.435Z,20.17
2023-02-14T08:33:50.764Z,22.17
2023-02-14T08:35:54.129Z,20.77
2023-02-14T08:37:58.751Z,21.15
2023-02-14T08:40:02.041Z,22.02
2023-02-14T08:42:05.549Z,22.08
2023-02-14T08:44:08.798Z,21.17
2023-02-14T08:46:13.104Z,20.60
2023-02-14T08:48:16.396Z,22.02
2023-02-14T08:50:20.503Z,21.58
2023-02-14T08:52:23.732Z,21.38
2023-02-14T08:54:28.392Z,21.33
2023-02-14T08:56:31.593Z,20.42
2023-02-14T08:58:35.901Z,21.33
2023-02-14T09:00:39.748Z,21.83
2023-02-14T09:02:43.169Z,21.05
2023-02-14T09:04:46.661Z,20.48
2023-02-14T09:06:49.900Z,21.23
2023-02-14T09:08:55.150Z,21.35
2023-02-14T09:11:00.213Z,21.23
2023-02-14T09:13:04.248Z,20.90
2023-02-14T09:15:08.324Z,21.70
2023-02-14T09:17:12.991Z,21.05
2023-02-14T09:19:16.125Z,21.27
2023-02-14T09:21:21.425Z,21.20
2023-02-14T09:23:24.902Z,20.55
2023-02-14T09:25:28.130Z,20.92
2023-02-14T09:27:32.769Z,21.15
2023-02-14T09:29:36.040Z,20.75
2023-02-14T09:31:39.929Z,22.48
2023-02-14T09:33:44.491Z,21.20
2023-02-14T09:35:47.664Z,21.50
2023-02-14T09:38:08.253Z,21.88
2023-02-14T09:40:14.792Z,21.33
2023-02-14T09:42:41.163Z,20.98
2023-02-14T09:44:53.980Z,22.50
2023-02-14T09:47:02.396Z,21.73
2023-02-14T09:49:12.376Z,21.73
2023-02-14T09:51:22.809Z,21.83
2023-02-14T09:53:30.485Z,21.08
2023-02-14T09:55:40.548Z,20.83
2023-02-14T09:58:05.773Z,21.65
2023-02-14T10:00:19.014Z,20.80
2023-02-14T10:02:40.564Z,21.25
2023-02-14T10:04:56.947Z,22.83
2023-02-14T10:07:09.393Z,22.08
2023-02-14T10:09:23.645Z,22.35
2023-02-14T10:11:26.952Z,23.27
2023-02-14T10:13:36.685Z,23.50
2023-02-14T10:15:44.141Z,22.30
2023-02-14T10:17:52.548Z,22.58
2023-02-14T10:20:01.002Z,22.85
2023-02-14T10:22:09.182Z,21.60
2023-02-14T10:24:17.817Z,22.60
2023-02-14T10:26:27.313Z,22.85
2023-02-14T10:28:38.381Z,22.65
2023-02-14T10:30:51.089Z,22.83
2023-02-14T10:33:04.485Z,22.83
2023-02-14T10:35:17.518Z,22.63
2023-02-14T10:37:33.798Z,22.35
2023-02-14T10:39:59.826Z,21.73
2023-02-14T10:42:12.991Z,22.73
2023-02-14T10:44:31.702Z,21.25
2023-02-14T10:46:41.985Z,22.58
2023-02-14T10:48:53.104Z,22.27
2023-02-14T10:51:03.109Z,24.15
2023-02-14T10:53:17.147Z,21.95
2023-02-14T10:55:32.370Z,22.75
2023-02-14T10:57:39.542Z,21.77
2023-02-14T10:59:50.710Z,22.65
2023-02-14T11:01:56.340Z,23.05
2023-02-14T11:04:06.626Z,23.02
2023-02-14T11:06:11.402Z,21.52
2023-02-14T11:08:23.414Z,21.73
2023-02-14T11:10:31.190Z,22.35
2023-02-14T11:12:39.372Z,22.05
2023-02-14T11:14:43.710Z,21.63
2023-02-14T11:16:51.863Z,26.55
2023-02-14T11:19:10.395Z,22.38
2023-02-14T11:21:17.807Z,23.38
2023-02-14T11:23:22.687Z,23.00
2023-02-14T11:25:28.133Z,22.65
2023-02-14T11:27:32.483Z,23.50
2023-02-14T11:29:44.965Z,22.27
2023-02-14T11:31:50.200Z,23.35
2023-02-14T11:33:54.451Z,22.95
2023-02-14T11:35:59.260Z,23.65
2023-02-14T11:38:05.154Z,22.27
2023-02-14T11:40:24.975Z,24.23
2023-02-14T11:42:38.931Z,23.70
2023-02-14T11:44:58.640Z,22.98
2023-02-14T11:47:26.977Z,23.02
2023-02-14T11:49:33.360Z,23.27
2023-02-14T11:51:40.319Z,23.15
2023-02-14T11:53:47.445Z,23.38
2023-02-14T11:55:56.070Z,24.40
2023-02-14T11:58:00.073Z,22.58
2023-02-14T12:00:13.319Z,24.13
2023-02-14T12:02:28.315Z,23.83
2023-02-14T12:04:45.648Z,24.08
2023-02-14T12:06:49.829Z,21.90
2023-02-14T12:08:53.242Z,23.13
2023-02-14T12:11:03.813Z,23.38
2023-02-14T12:13:25.718Z,23.52
2023-02-14T12:15:37.025Z,23.25
2023-02-14T12:17:46.916Z,23.20
2023-02-14T12:19:53.110Z,23.90
2023-02-14T12:22:01.299Z,22.50
2023-02-14T12:24:13.770Z,23.85
2023-02-14T12:26:27.493Z,23.23
2023-02-14T12:28:38.556Z,22.80
2023-02-14T12:30:42.550Z,23.02
2023-02-14T12:32:50.535Z,23.17
2023-02-14T12:34:59.870Z,23.40
2023-02-14T12:37:30.647Z,23.10
2023-02-14T12:39:39.337Z,22.63
2023-02-14T12:41:50.447Z,23.60
2023-02-14T12:43:56.041Z,23.50
2023-02-14T12:46:12.927Z,23.45
2023-02-14T12:48:28.899Z,22.88
2023-02-14T12:50:43.300Z,22.77
2023-02-14T12:53:26.557Z,23.75
2023-02-14T12:55:42.495Z,23.27
2023-02-14T12:57:52.400Z,23.27
2023-02-14T13:00:04.602Z,24.02
2023-02-14T13:02:56.257Z,22.95
2023-02-14T13:05:06.971Z,22.02
2023-02-14T13:07:20.131Z,22.60
2023-02-14T13:09:36.102Z,22.70
2023-02-14T13:11:48.511Z,23.00
2023-02-14T13:14:04.572Z,22.23
2023-02-14T13:16:16.727Z,23.52
2023-02-14T13:18:35.614Z,22.88
2023-02-14T13:20:50.446Z,22.13
2023-02-14T13:22:56.909Z,22.70
2023-02-14T13:25:04.790Z,21.25
2023-02-14T13:27:13.674Z,22.35
2023-02-14T13:29:20.640Z,20.00
2023-02-14T13:31:24.559Z,21.33
2023-02-14T13:33:34.908Z,21.50
2023-02-14T13:35:39.123Z,20.02
2023-02-14T13:37:51.222Z,20.98
2023-02-14T13:39:57.831Z,21.80
2023-02-14T13:42:01.597Z,21.40
2023-02-14T13:44:05.505Z,21.73
2023-02-14T13:46:09.016Z,21.73
2023-02-14T13:48:14.430Z,20.77
2023-02-14T13:50:22.904Z,22.15
2023-02-14T13:52:46.118Z,21.38
2023-02-14T13:54:50.116Z,21.38
2023-02-14T13:56:53.709Z,21.27
2023-02-14T13:59:00.366Z,21.17
2023-02-14T14:01:33.058Z,22.05
2023-02-14T14:03:57.687Z,22.23
2023-02-14T14:06:08.328Z,21.60
2023-02-14T14:08:42.403Z,22.07
2023-02-14T14:10:47.034Z,20.80
2023-02-14T14:12:52.202Z,20.38
2023-02-14T14:15:13.237Z,21.52
2023-02-14T14:17:21.895Z,21.40
2023-02-14T14:19:39.882Z,20.23
2023-02-14T14:21:44.813Z,21.23
2023-02-14T14:24:06.236Z,21.98
2023-02-14T14:26:35.264Z,21.33
2023-02-14T14:28:38.756Z,20.60
2023-02-14T14:30:45.613Z,21.35
2023-02-14T14:32:49.042Z,21.05
2023-02-14T14:34:54.060Z,21.70
2023-02-14T14:37:04.154Z,20.55
2023-02-14T14:39:11.243Z,20.48
2023-02-14T14:41:14.695Z,19.63
2023-02-14T14:43:23.100Z,19.83
2023-02-14T14:45:28.327Z,20.30
2023-02-14T14:47:38.812Z,21.20
2023-02-14T14:49:42.280Z,20.23
2023-02-14T14:51:46.607Z,21.25
2023-02-14T14:53:53.808Z,20.50
2023-02-14T14:55:59.310Z,21.00
2023-02-14T14:58:05.011Z,21.40
2023-02-14T15:00:28.674Z,22.00
2023-02-14T15:02:32.159Z,21.33
2023-02-14T15:04:36.583Z,21.98
2023-02-14T15:06:41.033Z,21.70
2023-02-14T15:08:44.676Z,21.20
2023-02-14T15:10:52.411Z,20.70
2023-02-14T15:13:17.057Z,20.83
2023-02-14T15:15:20.554Z,20.92
2023-02-14T15:17:27.737Z,20.55
2023-02-14T15:19:37.140Z,20.23
2023-02-14T15:21:44.635Z,20.33
2023-02-14T15:23:48.927Z,20.33
2023-02-14T15:25:53.706Z,20.77
2023-02-14T15:27:58.597Z,19.73
2023-02-14T15:30:06.713Z,20.27
2023-02-14T15:32:12.005Z,20.52
2023-02-14T15:34:15.864Z,19.90
2023-02-14T15:36:25.259Z,20.58
2023-02-14T15:38:29.403Z,20.00
2023-02-14T15:40:36.387Z,20.85
2023-02-14T15:42:42.374Z,21.33
2023-02-14T15:44:47.104Z,20.00
2023-02-14T15:46:55.337Z,19.80
2023-02-14T15:49:01.595Z,19.52
2023-02-14T15:51:06.468Z,20.75
2023-02-14T15:53:27.774Z,19.70
2023-02-14T15:55:33.433Z,20.38
2023-02-14T15:57:38.431Z,20.35
2023-02-14T15:59:43.568Z,20.17
2023-02-14T16:01:54.500Z,20.25
2023-02-14T16:04:00.706Z,19.23
2023-02-14T16:06:05.304Z,20.35
2023-02-14T16:08:27.788Z,20.27
2023-02-14T16:10:32.792Z,19.95
2023-02-14T16:12:38.190Z,19.70
2023-02-14T16:14:45.764Z,20.63
2023-02-14T16:17:02.026Z,21.63
2023-02-14T16:19:06.629Z,20.80
2023-02-14T16:21:15.566Z,21.13
2023-02-14T16:23:23.163Z,20.67
2023-02-14T16:25:26.626Z,21.52
2023-02-14T16:27:30.019Z,21.83
2023-02-14T16:29:33.907Z,21.75
2023-02-14T16:31:39.917Z,21.98
2023-02-14T16:33:45.029Z,22.75
2023-02-14T16:35:49.378Z,22.42
2023-02-14T16:37:53.560Z,21.35
2023-02-14T16:39:57.845Z,21.52
2023-02-14T16:42:01.360Z,21.70
2023-02-14T16:44:07.043Z,23.75
2023-02-14T16:46:12.684Z,21.75
2023-02-14T16:48:16.960Z,22.27
2023-02-14T16:50:22.834Z,22.50
2023-02-14T16:52:28.286Z,22.05
2023-02-14T16:54:32.577Z,21.60
2023-02-14T16:56:40.674Z,22.42
2023-02-14T16:58:44.543Z,21.90
2023-02-14T17:00:47.900Z,22.95
2023-02-14T17:02:51.551Z,23.17
2023-02-14T17:04:55.370Z,23.10
2023-02-14T17:07:05.876Z,22.60
2023-02-14T17:09:13.741Z,23.52
2023-02-14T17:11:17.320Z,25.02
2023-02-14T17:13:25.241Z,23.80
2023-02-14T17:15:30.224Z,24.30
2023-02-14T17:17:35.106Z,23.77
2023-02-14T17:19:38.831Z,22.95
2023-02-14T17:21:43.915Z,23.08
2023-02-14T17:23:48.946Z,23.77
2023-02-14T17:25:52.519Z,22.38
2023-02-14T17:27:56.532Z,23.30
2023-02-14T17:29:59.980Z,23.85
2023-02-14T17:32:07.165Z,21.83
2023-02-14T17:34:11.138Z,23.05
2023-02-14T17:36:15.790Z,23.35
2023-02-14T17:38:21.627Z,23.25
2023-02-14T17:40:26.456Z,23.52
2023-02-14T17:42:31.800Z,24.02
2023-02-14T17:44:36.031Z,23.38
2023-02-14T17:46:39.622Z,23.83
2023-02-14T17:48:45.514Z,24.33
2023-02-14T17:50:48.945Z,23.08
2023-02-14T17:52:55.522Z,23.38
2023-02-14T17:54:59.112Z,24.52
2023-02-14T17:57:04.660Z,23.55
2023-02-14T17:59:08.014Z,23.58
2023-02-14T18:01:13.265Z,24.15
2023-02-14T18:03:20.374Z,24.50
2023-02-14T18:05:24.213Z,24.95
2023-02-14T18:07:27.689Z,25.35
2023-02-14T18:09:31.291Z,24.70
2023-02-14T18:11:34.730Z,23.80
2023-02-14T18:13:40.080Z,25.02
2023-02-14T18:15:43.499Z,24.60
2023-02-14T18:17:50.769Z,25.10
2023-02-14T18:19:54.263Z,26.75
2023-02-14T18:21:58.169Z,23.52
2023-02-14T18:24:03.091Z,24.83
2023-02-14T18:26:08.455Z,25.65
2023-02-14T18:28:11.846Z,24.77
2023-02-14T18:30:17.236Z,23.70
2023-02-14T18:32:20.784Z,26.50
2023-02-14T18:34:24.441Z,24.75
2023-02-14T18:36:28.535Z,26.15
2023-02-14T18:38:31.874Z,26.65
2023-02-14T18:40:35.784Z,26.73
2023-02-14T18:42:39.206Z,23.75
2023-02-14T18:44:42.585Z,25.27
2023-02-14T18:46:47.391Z,25.23
2023-02-14T18:48:51.517Z,26.35
2023-02-14T18:50:54.892Z,26.33
2023-02-14T18:52:58.301Z,25.67
2023-02-14T18:55:01.713Z,25.95
2023-02-14T18:57:05.164Z,25.33
2023-02-14T18:59:10.421Z,25.30
2023-02-14T19:01:15.658Z,26.27
2023-02-14T19:03:20.504Z,25.95
2023-02-14T19:05:26.197Z,27.50
2023-02-14T19:07:29.709Z,26.02
2023-02-14T19:09:39.063Z,27.17
2023-02-14T19:11:42.752Z,27.13
2023-02-14T19:13:46.857Z,26.40
2023-02-14T19:15:50.961Z,25.42
2023-02-14T19:17:54.814Z,26.85
2023-02-14T19:19:59.868Z,25.85
2023-02-14T19:22:03.472Z,26.67
2023-02-14T19:24:08.734Z,27.63
2023-02-14T19:26:14.684Z,26.38
2023-02-14T19:28:19.371Z,26.42
2023-02-14T19:30:22.918Z,25.50
2023-02-14T19:32:26.766Z,26.70
2023-02-14T19:34:31.610Z,25.95
2023-02-14T19:36:37.651Z,25.70
2023-02-14T19:38:42.703Z,27.00
2023-02-14T19:40:46.294Z,26.67
2023-02-14T19:42:50.288Z,27.70
2023-02-14T19:44:54.217Z,27.20
2023-02-14T19:47:00.184Z,26.27
2023-02-14T19:49:04.399Z,27.38
2023-02-14T19:51:08.380Z,26.75
2023-02-14T19:53:13.220Z,27.00
2023-02-14T19:55:23.474Z,26.73
2023-02-14T19:57:27.415Z,26.38
2023-02-14T19:59:32.592Z,28.83
2023-02-14T20:01:38.055Z,27.35
2023-02-14T20:03:42.193Z,27.85
2023-02-14T20:05:45.581Z,28.73
2023-02-14T20:07:52.023Z,29.63
2023-02-14T20:09:56.811Z,27.65
2023-02-14T20:12:01.529Z,28.98
2023-02-14T20:14:05.407Z,27.30
2023-02-14T20:16:11.941Z,29.38
2023-02-14T20:18:16.195Z,28.60
2023-02-14T20:20:21.578Z,28.98
2023-02-14T20:22:25.765Z,27.92
2023-02-14T20:24:30.650Z,30.23
2023-02-14T20:26:37.268Z,29.70
2023-02-14T20:28:40.692Z,27.95
2023-02-14T20:30:44.192Z,29.83
2023-02-14T20:32:47.626Z,28.73
2023-02-14T20:34:51.960Z,29.67
2023-02-14T20:36:56.069Z,30.73
2023-02-14T20:39:00.722Z,30.25
2023-02-14T20:41:05.736Z,30.55
2023-02-14T20:43:10.680Z,29.63
2023-02-14T20:45:14.065Z,29.60
2023-02-14T20:47:18.249Z,30.27
2023-02-14T20:49:23.322Z,31.63
2023-02-14T20:51:27.403Z,30.83
2023-02-14T20:53:30.753Z,29.98
2023-02-14T20:55:34.143Z,31.52
2023-02-14T20:57:38.606Z,30.20
2023-02-14T20:59:45.367Z,30.85
2023-02-14T21:01:48.755Z,30.55
2023-02-14T21:03:53.588Z,31.92
2023-02-14T21:05:57.557Z,31.42
2023-02-14T21:08:00.985Z,31.85
2023-02-14T21:10:04.512Z,32.30
2023-02-14T21:12:08.842Z,31.58
2023-02-14T21:14:12.295Z,32.60
2023-02-14T21:16:18.739Z,31.85
2023-02-14T21:18:22.582Z,31.67
2023-02-14T21:20:25.961Z,31.00
2023-02-14T21:22:29.381Z,31.02
2023-02-14T21:24:32.878Z,31.63
2023-02-14T21:26:36.621Z,31.90
2023-02-14T21:28:40.006Z,30.52
2023-02-14T21:30:43.522Z,30.75
2023-02-14T21:32:48.376Z,29.55
2023-02-14T21:34:51.812Z,31.25
2023-02-14T21:36:56.402Z,29.95
2023-02-14T21:39:01.144Z,31.50
2023-02-14T21:41:07.031Z,31.90
2023-02-14T21:43:10.489Z,30.77
2023-02-14T21:45:46.628Z,30.55
2023-02-14T21:48:05.247Z,30.33
2023-02-14T21:50:41.755Z,29.83
2023-02-14T21:52:45.270Z,30.33
2023-02-14T21:54:48.959Z,32.63
2023-02-14T21:56:52.623Z,31.33
2023-02-14T21:58:57.100Z,31.80
2023-02-14T22:01:00.940Z,32.08
2023-02-14T22:03:06.139Z,32.35
2023-02-14T22:05:09.790Z,31.83
2023-02-14T22:07:13.275Z,32.85
2023-02-14T22:09:18.755Z,33.25
2023-02-14T22:11:23.116Z,35.13
2023-02-14T22:13:27.033Z,31.75
2023-02-14T22:15:30.535Z,32.47
2023-02-14T22:17:34.436Z,35.35
2023-02-14T22:19:39.323Z,33.90
2023-02-14T22:21:44.324Z,33.33
2023-02-14T22:23:48.204Z,33.33
2023-02-14T22:25:51.657Z,31.50
2023-02-14T22:27:55.270Z,33.95
2023-02-14T22:29:58.717Z,34.53
2023-02-14T22:32:02.370Z,32.78
2023-02-14T22:34:06.225Z,34.90
2023-02-14T22:36:11.685Z,36.47
2023-02-14T22:38:15.236Z,37.70
2023-02-14T22:40:19.021Z,37.65
2023-02-14T22:42:22.501Z,35.65
2023-02-14T22:44:26.109Z,37.63
2023-02-14T22:46:30.097Z,39.17
2023-02-14T22:48:34.485Z,39.42
2023-02-14T22:50:38.006Z,40.25
2023-02-14T22:52:42.821Z,40.78
2023-02-14T22:54:46.279Z,42.08
2023-02-14T22:56:51.624Z,41.80
2023-02-14T22:58:56.646Z,43.33
2023-02-14T23:01:00.110Z,43.88
2023-02-14T23:03:03.687Z,42.92
2023-02-14T23:05:07.598Z,42.92
2023-02-14T23:07:12.066Z,44.97
2023-02-14T23:09:17.683Z,44.35
2023-02-14T23:11:22.944Z,45.50
2023-02-14T23:13:49.300Z,45.20
2023-02-14T23:16:11.836Z,43.88
2023-02-14T23:18:32.798Z,44.38
2023-02-14T23:20:53.899Z,44.45
2023-02-14T23:22:57.364Z,44.35
2023-02-14T23:25:04.536Z,45.03
2023-02-14T23:27:08.919Z,43.47
2023-02-14T23:29:12.337Z,44.78
2023-02-14T23:31:15.945Z,44.70
2023-02-14T23:33:19.886Z,45.05
2023-02-14T23:35:23.364Z,46.45
2023-02-14T23:37:26.983Z,47.00
2023-02-14T23:39:32.673Z,49.13
2023-02-14T23:41:48.809Z,51.17
2023-02-14T23:43:52.277Z,52.83
2023-02-14T23:45:55.802Z,50.08
2023-02-14T23:48:03.316Z,50.58
2023-02-14T23:50:07.824Z,47.42
2023-02-14T23:52:13.235Z,48.13
2023-02-14T23:54:17.175Z,47.00
2023-02-14T23:56:20.848Z,46.03
2023-02-14T23:58:25.750Z,46.30
